Nearby METAR Data
EGNX - East Midlands, United Kingdom
Distance from station: SSE 24mi, 39km
Updated: 21/10/2017 03:50
Partly Cloudy
Partly Cloudy
 Wind from S
Wind: S 14 mph , 22 km/h
Temperature: 13°C
Dew Point: 12°C
Humidity: 94%
Barometer: 998 hPa
Clouds: Partly Cloudy
Visibility: 6 miles , 10 km
Cloud details: Partly Cloudy 823 m
2017/10/21 02:50 EGNX 210250Z 19012KT 9999 SCT027 13/12 Q0998
EGCN - Doncaster Sheffi, United Kingdom
Distance from station: NE 31mi, 49km
Updated: 21/10/2017 03:50
Mostly Cloudy
Mostly Cloudy
 Wind from SSE
Wind: SSE 10 mph , 17 km/h
Temperature: 13°C
Dew Point: 12°C
Humidity: 94%
Barometer: 998 hPa
Clouds: Mostly Cloudy
Visibility: 6 miles , 10 km
Cloud details: Partly Cloudy 152 m
Mostly Cloudy 274 m
Mostly Cloudy 396 m
2017/10/21 02:50 EGCN 210250Z 16009KT 9999 SCT005 BKN009 BKN013 13/12 Q0998
 
EGXS - Swinderby Raf, United Kingdom
Distance from station: E 33mi, 54km
Updated: 21/10/2017 02:50
Mostly Cloudy
Mostly Cloudy
 Wind from SSE
Wind: SSE 16 mph , 26 km/h, Gust: 28 mph , 44 km/h
Temperature: 12°C
Dew Point: 11°C
Humidity: 94%
Barometer: 1000 hPa
Clouds: Mostly Cloudy
Visibility: 3 miles , 4 km
Cloud details: Few Clouds 305 m
Mostly Cloudy 1097 m
2017/10/21 01:50 EGXS 210150Z AUTO 16014G24KT 4400 // FEW010/// BKN036/// 12/11 Q1000
EGCC - Manchester Intl, United Kingdom
Distance from station: WNW 35mi, 56km
Updated: 21/10/2017 03:50
Few Clouds
Few Clouds
 Wind from SSE
Wind: SSE 7 mph , 11 km/h
Temperature: 13°C
Dew Point: 11°C
Humidity: 88%
Barometer: 996 hPa
Clouds: Few Clouds
Visibility: 6 miles , 10 km
Cloud details: Few Clouds 945 m
2017/10/21 02:50 EGCC 210250Z AUTO 16006KT 090V200 9999 FEW031 13/11 Q0996 NOSIG
 
EGXP - Scampton Raf, United Kingdom
Distance from station: ENE 40mi, 65km
Updated: 21/10/2017 02:50
Mostly Cloudy
Mostly Cloudy
 Wind from SSE
Wind: SSE 15 mph , 24 km/h
Temperature: 11°C
Dew Point: 11°C
Humidity: 100%
Barometer: 998 hPa
Clouds: Mostly Cloudy
Visibility: 4 miles , 6 km
Cloud details: Mostly Cloudy 183 m
Mostly Cloudy 2134 m
2017/10/21 01:50 EGXP 210150Z AUTO 15013KT 6000 // BKN006/// BKN070/// 11/11 Q0998
EGXW - Waddington Raf, United Kingdom
Distance from station: E 40mi, 65km
Updated: 21/10/2017 03:50
Mostly Cloudy
Mostly Cloudy
 Wind from SSE
Wind: SSE 17 mph , 28 km/h
Temperature: 12°C
Dew Point: 12°C
Humidity: 100%
Barometer: 998 hPa
Clouds: Mostly Cloudy
Visibility: 6 miles , 10 km
Cloud details: Few Clouds 152 m
Mostly Cloudy 518 m
Mostly Cloudy 2743 m
2017/10/21 02:50 EGXW 210250Z 16015KT 9999 FEW005 BKN017 BKN090 12/12 Q0998 WHT

Home | Sitemap | Software Status | About Us | Contact Us

Powered by Cumulus   (Build ) © sheffieldwx.co.uk      

1 visitors online now
Max visitors today: 1 at 03:04 am BST
This month: 5 at 10-14-2017 07:23 am BST
This year: 14 at 05-08-2017 07:02 pm BST
All time: 35 at 10-10-2015 04:40 pm BST